Time;durP1;ratioP1;P1;durP2;ratioP2;P2;SDS_P1;SDS_P2;PMS_P1;PMS_P2;Temp;Humidity;BMP_temperature;BMP_pressure;BME280_temperature;BME280_humidity;BME280_pressure;Samples;Min_cycle;Max_cycle;Signal;HPM_P1;HPM_P2
2022/10/11 00:00:31;;;;;;;7.27;2.10;;;9.60;99.90;;;;;;5014509;28;20229;-47
2022/10/11 00:03:00;;;;;;;9.03;2.43;;;9.50;99.90;;;;;;5015169;28;20232;-50
2022/10/11 00:05:30;;;;;;;10.47;2.30;;;9.50;99.90;;;;;;5014846;28;20559;-49
2022/10/11 00:07:58;;;;;;;7.20;2.00;;;9.50;99.90;;;;;;5015032;28;20597;-49
2022/10/11 00:10:26;;;;;;;9.33;2.13;;;9.40;99.90;;;;;;5014549;28;20240;-49
2022/10/11 00:12:54;;;;;;;6.97;1.77;;;9.40;99.90;;;;;;4999679;28;20234;-48
2022/10/11 00:15:22;;;;;;;10.03;1.93;;;9.40;99.90;;;;;;4975617;28;20758;-49
2022/10/11 00:17:51;;;;;;;8.50;2.10;;;9.40;99.90;;;;;;4989352;28;20226;-48
2022/10/11 00:20:19;;;;;;;10.80;2.30;;;9.40;99.90;;;;;;4994919;28;20227;-50
2022/10/11 00:22:49;;;;;;;7.80;1.90;;;9.40;99.90;;;;;;4994646;28;20218;-50
2022/10/11 00:25:17;;;;;;;9.87;2.33;;;9.40;99.90;;;;;;4995002;28;20702;-51
2022/10/11 00:27:45;;;;;;;9.70;1.80;;;9.40;99.90;;;;;;5000146;28;20235;-47
2022/10/11 00:30:13;;;;;;;10.60;2.17;;;9.30;99.90;;;;;;5014211;28;20685;-50
2022/10/11 00:32:41;;;;;;;7.57;2.10;;;9.30;99.90;;;;;;5014381;28;20229;-51
2022/10/11 00:35:10;;;;;;;13.40;2.70;;;9.30;99.90;;;;;;5014549;28;20229;-51
2022/10/11 00:37:39;;;;;;;8.33;2.20;;;9.40;99.90;;;;;;5014288;28;20233;-51
2022/10/11 00:40:14;;;;;;;9.83;2.00;;;9.40;99.90;;;;;;5006699;28;20591;-48
2022/10/11 00:42:42;;;;;;;9.17;2.33;;;9.40;99.90;;;;;;4994647;28;20258;-50
2022/10/11 00:45:52;;;;;;;8.20;2.00;;;9.50;99.90;;;;;;4994511;28;20223;-48
2022/10/11 00:48:26;;;;;;;16.03;2.40;;;9.40;99.90;;;;;;4994144;28;20225;-49
2022/10/11 00:50:55;;;;;;;9.73;2.17;;;9.50;99.90;;;;;;4993612;28;20705;-51
2022/10/11 00:53:23;;;;;;;10.30;2.63;;;9.50;99.90;;;;;;4997692;28;20223;-49
2022/10/11 00:55:59;;;;;;;10.00;2.23;;;9.50;99.90;;;;;;4996130;28;20244;-49
2022/10/11 00:58:27;;;;;;;15.83;2.23;;;9.60;99.90;;;;;;5005285;28;20233;-48
2022/10/11 01:00:55;;;;;;;9.97;2.30;;;9.60;99.90;;;;;;5013620;28;20243;-50
2022/10/11 01:03:26;;;;;;;9.87;2.60;;;9.70;99.90;;;;;;5014063;28;20229;-50
2022/10/11 01:05:55;;;;;;;8.10;2.37;;;9.70;99.90;;;;;;5013638;28;20233;-49
2022/10/11 01:08:23;;;;;;;10.27;2.30;;;9.70;99.90;;;;;;5013918;28;20586;-49
2022/10/11 01:10:53;;;;;;;6.90;2.07;;;9.70;99.90;;;;;;5000271;28;20698;-49
2022/10/11 01:13:32;;;;;;;14.27;2.43;;;9.80;99.90;;;;;;4993756;28;20234;-48
2022/10/11 01:16:11;;;;;;;8.07;2.57;;;9.70;99.90;;;;;;4994164;28;20231;-48
2022/10/11 01:18:48;;;;;;;9.60;2.03;;;9.60;99.90;;;;;;4993794;28;20247;-49
2022/10/11 01:21:26;;;;;;;12.97;2.73;;;9.60;99.90;;;;;;4974398;28;20230;-51
2022/10/11 01:24:28;;;;;;;10.73;2.20;;;9.50;99.90;;;;;;4984478;28;20222;-47
2022/10/11 01:27:19;;;;;;;7.30;1.90;;;9.50;99.90;;;;;;5002649;28;20352;-51
2022/10/11 01:29:57;;;;;;;9.73;2.13;;;9.40;99.90;;;;;;5010432;28;20230;-47
2022/10/11 01:32:36;;;;;;;10.77;2.27;;;9.30;99.90;;;;;;5012785;28;20237;-48
2022/10/11 01:35:10;;;;;;;10.97;2.30;;;9.30;99.90;;;;;;5013469;28;20239;-48
2022/10/11 01:37:41;;;;;;;12.13;2.27;;;9.30;99.90;;;;;;5012995;28;20223;-50
2022/10/11 01:40:14;;;;;;;12.00;2.13;;;9.20;99.90;;;;;;5005672;28;20671;-49
2022/10/11 01:42:43;;;;;;;9.00;2.23;;;9.20;99.90;;;;;;4981902;28;20229;-48
2022/10/11 01:45:16;;;;;;;10.03;2.53;;;9.20;99.90;;;;;;4974037;28;20226;-47
2022/10/11 01:47:45;;;;;;;10.87;2.50;;;9.20;99.90;;;;;;4987133;28;20717;-49
2022/10/11 01:50:45;;;;;;;10.43;2.20;;;9.20;99.90;;;;;;4993561;28;20629;-50
2022/10/11 01:53:39;;;;;;;14.47;2.53;;;9.20;99.90;;;;;;4933330;29;20236;-49
2022/10/11 01:56:22;;;;;;;13.23;2.20;;;9.20;99.90;;;;;;4990672;28;20238;-47
2022/10/11 01:59:18;;;;;;;12.53;2.63;;;9.30;99.90;;;;;;5004770;28;20581;-48
2022/10/11 02:01:59;;;;;;;10.50;2.50;;;9.40;99.90;;;;;;5012407;28;20244;-47
2022/10/11 02:04:33;;;;;;;8.73;2.33;;;9.40;99.90;;;;;;5013011;28;20756;-49
2022/10/11 02:07:10;;;;;;;9.97;2.33;;;9.40;99.90;;;;;;5002196;28;20230;-50
2022/10/11 02:09:44;;;;;;;10.47;2.00;;;9.40;99.90;;;;;;4993023;28;20228;-48
2022/10/11 02:12:25;;;;;;;8.33;1.90;;;9.50;99.90;;;;;;4973668;28;20714;-50
2022/10/11 02:14:56;;;;;;;9.93;2.40;;;9.50;99.90;;;;;;4973938;28;20240;-48
2022/10/11 02:17:31;;;;;;;11.10;2.13;;;9.50;99.90;;;;;;4984108;28;20233;-48
2022/10/11 02:20:05;;;;;;;9.90;2.40;;;9.50;99.90;;;;;;4992865;28;20238;-47
2022/10/11 02:22:37;;;;;;;11.77;2.20;;;9.40;99.90;;;;;;4992844;28;20240;-47
2022/10/11 02:25:08;;;;;;;8.23;1.93;;;9.40;99.90;;;;;;4992403;28;20222;-49
2022/10/11 02:27:39;;;;;;;8.87;2.00;;;9.30;99.90;;;;;;5001585;28;20225;-50
2022/10/11 02:30:09;;;;;;;7.40;2.13;;;9.20;99.90;;;;;;4994346;28;20226;-48
2022/10/11 02:32:41;;;;;;;9.27;2.70;;;9.20;99.90;;;;;;4992550;28;20280;-48
2022/10/11 02:35:12;;;;;;;8.70;2.30;;;9.20;99.90;;;;;;4993254;28;20230;-49
2022/10/11 02:37:46;;;;;;;11.93;2.20;;;9.10;99.90;;;;;;4993110;28;20234;-50
2022/10/11 02:40:19;;;;;;;11.23;1.93;;;9.10;99.90;;;;;;4997000;28;20229;-47
2022/10/11 02:42:53;;;;;;;7.30;2.10;;;9.00;99.90;;;;;;5012663;28;20240;-50
2022/10/11 02:45:25;;;;;;;8.80;1.80;;;9.00;99.90;;;;;;5012735;28;20225;-47
2022/10/11 02:47:54;;;;;;;11.13;2.00;;;9.00;99.90;;;;;;5012008;28;20240;-49
2022/10/11 02:50:23;;;;;;;7.37;2.13;;;9.00;99.90;;;;;;5012201;28;20228;-50
2022/10/11 02:52:51;;;;;;;9.60;2.60;;;9.10;99.90;;;;;;5012601;28;20290;-50
2022/10/11 02:55:20;;;;;;;8.87;1.87;;;9.00;99.90;;;;;;5012545;28;20715;-47
2022/10/11 02:57:48;;;;;;;9.20;2.20;;;9.00;99.90;;;;;;5012779;28;20237;-50
2022/10/11 03:00:16;;;;;;;10.07;2.40;;;9.00;99.90;;;;;;5011802;28;20280;-49
2022/10/11 03:02:44;;;;;;;11.20;2.40;;;9.00;99.90;;;;;;5012444;28;20241;-47
2022/10/11 03:05:12;;;;;;;8.73;2.30;;;9.00;99.90;;;;;;5012342;28;20697;-48
2022/10/11 03:07:41;;;;;;;8.33;2.17;;;8.90;99.90;;;;;;5012043;28;20241;-48
2022/10/11 03:10:10;;;;;;;8.37;2.23;;;8.90;99.90;;;;;;5011492;28;20241;-49
2022/10/11 03:12:38;;;;;;;10.57;2.67;;;8.90;99.90;;;;;;5012823;28;20233;-50
2022/10/11 03:15:07;;;;;;;7.67;2.03;;;8.90;99.90;;;;;;5015777;28;20713;-49
2022/10/11 03:17:35;;;;;;;10.80;2.30;;;8.80;99.90;;;;;;5015641;28;20234;-47
2022/10/11 03:20:06;;;;;;;9.63;2.17;;;8.80;99.90;;;;;;5015503;28;20233;-49
2022/10/11 03:22:34;;;;;;;11.20;2.57;;;8.80;99.90;;;;;;5015759;28;20762;-47
2022/10/11 03:25:03;;;;;;;11.83;2.40;;;8.80;99.90;;;;;;5015706;28;20588;-47
2022/10/11 03:27:32;;;;;;;7.60;2.27;;;8.80;99.90;;;;;;5015939;28;20225;-47
2022/10/11 03:30:01;;;;;;;11.57;2.13;;;8.80;99.90;;;;;;5015485;28;20240;-49
2022/10/11 03:32:29;;;;;;;9.50;2.43;;;8.80;99.90;;;;;;5014908;28;20241;-50
2022/10/11 03:34:57;;;;;;;11.03;2.63;;;8.80;99.90;;;;;;5015675;28;20236;-51
2022/10/11 03:37:26;;;;;;;10.13;2.17;;;8.80;99.90;;;;;;5015503;28;20236;-48
2022/10/11 03:39:54;;;;;;;9.87;2.17;;;8.80;99.90;;;;;;5014890;28;20241;-50
2022/10/11 03:42:23;;;;;;;14.47;2.30;;;8.90;99.90;;;;;;5015564;28;20225;-50
2022/10/11 03:44:51;;;;;;;8.40;1.90;;;8.90;99.90;;;;;;5015267;28;20283;-47
2022/10/11 03:47:19;;;;;;;9.40;2.03;;;9.00;99.90;;;;;;5015290;28;20228;-49
2022/10/11 03:49:47;;;;;;;6.27;2.03;;;9.00;99.90;;;;;;5014707;28;20225;-48
2022/10/11 03:52:15;;;;;;;9.17;2.60;;;9.00;99.90;;;;;;5015392;28;20244;-47
2022/10/11 03:54:43;;;;;;;10.27;2.67;;;9.10;99.90;;;;;;5013962;28;20755;-49
2022/10/11 03:57:11;;;;;;;10.47;3.13;;;9.00;99.90;;;;;;5008859;28;20240;-50
2022/10/11 03:59:41;;;;;;;8.27;2.60;;;9.00;99.90;;;;;;5014722;28;20229;-51
2022/10/11 04:02:09;;;;;;;8.10;2.80;;;9.00;99.90;;;;;;5014531;28;20590;-49
2022/10/11 04:04:37;;;;;;;9.23;2.60;;;9.00;99.90;;;;;;5015014;28;20225;-50
2022/10/11 04:07:06;;;;;;;10.43;2.43;;;9.00;99.90;;;;;;5014847;28;20566;-48
2022/10/11 04:09:34;;;;;;;7.90;2.23;;;8.90;99.90;;;;;;5014122;28;20209;-48
2022/10/11 04:12:02;;;;;;;14.07;3.00;;;9.00;99.90;;;;;;5014422;28;20233;-48
2022/10/11 04:14:30;;;;;;;8.87;2.10;;;8.90;99.90;;;;;;5014775;28;20225;-48
2022/10/11 04:16:59;;;;;;;9.33;1.97;;;8.90;99.90;;;;;;5014769;28;20570;-47
2022/10/11 04:19:28;;;;;;;9.40;2.10;;;8.90;99.90;;;;;;5014159;28;20233;-49
2022/10/11 04:21:56;;;;;;;6.70;2.00;;;8.80;99.90;;;;;;5014554;28;20221;-50
2022/10/11 04:24:24;;;;;;;9.67;2.20;;;8.80;99.90;;;;;;5013637;28;20709;-48
2022/10/11 04:26:52;;;;;;;10.37;2.30;;;8.80;99.90;;;;;;5015246;28;20229;-48
2022/10/11 04:29:20;;;;;;;5.93;2.10;;;8.80;99.90;;;;;;5014202;28;20236;-49
2022/10/11 04:31:48;;;;;;;9.60;2.07;;;8.80;99.90;;;;;;4997703;28;20732;-47
2022/10/11 04:34:18;;;;;;;7.53;2.50;;;8.80;99.90;;;;;;4994484;28;20717;-49
2022/10/11 04:36:46;;;;;;;9.53;2.33;;;8.80;99.90;;;;;;4994778;28;20229;-50
2022/10/11 04:39:17;;;;;;;11.07;2.60;;;8.80;99.90;;;;;;4994284;28;20316;-50
2022/10/11 04:41:45;;;;;;;5.27;1.90;;;8.80;99.90;;;;;;4994628;28;20245;-49
2022/10/11 04:44:13;;;;;;;11.17;2.80;;;8.80;99.90;;;;;;4994779;28;20229;-49
2022/10/11 04:46:41;;;;;;;9.97;2.30;;;8.80;99.90;;;;;;4994323;28;20237;-47
2022/10/11 04:49:09;;;;;;;9.57;2.53;;;8.90;99.90;;;;;;4986447;28;20293;-48
2022/10/11 04:51:38;;;;;;;8.20;2.03;;;8.90;99.90;;;;;;4994153;28;20230;-48
2022/10/11 04:54:06;;;;;;;9.30;2.90;;;8.90;99.90;;;;;;4994334;28;20226;-50
2022/10/11 04:56:34;;;;;;;5.27;1.93;;;8.90;99.90;;;;;;4990323;28;20226;-47
2022/10/11 04:59:02;;;;;;;8.43;3.17;;;9.00;99.90;;;;;;4994065;28;20222;-48
2022/10/11 05:01:30;;;;;;;11.37;2.67;;;9.00;99.90;;;;;;4993627;28;20767;-50
2022/10/11 05:03:59;;;;;;;7.97;2.23;;;9.00;99.90;;;;;;4982160;28;20234;-50
2022/10/11 05:06:27;;;;;;;10.17;2.47;;;9.00;99.90;;;;;;4994022;28;20633;-49
2022/10/11 05:08:56;;;;;;;7.70;2.30;;;8.90;99.90;;;;;;4994127;28;20228;-50
2022/10/11 05:11:24;;;;;;;9.10;2.47;;;8.80;99.90;;;;;;4993704;28;20796;-48
2022/10/11 05:13:52;;;;;;;5.90;2.23;;;8.80;99.90;;;;;;4985715;28;20226;-49
2022/10/11 05:16:20;;;;;;;6.17;1.97;;;8.70;99.90;;;;;;4994265;28;20237;-50
2022/10/11 05:18:49;;;;;;;7.80;2.10;;;8.70;99.90;;;;;;4995097;28;20693;-48
2022/10/11 05:21:20;;;;;;;7.77;2.00;;;8.70;99.90;;;;;;4991215;28;20276;-47
2022/10/11 05:23:50;;;;;;;8.53;2.03;;;8.60;99.90;;;;;;4986326;28;20234;-50
2022/10/11 05:26:20;;;;;;;9.47;2.40;;;8.60;99.90;;;;;;4991659;28;20702;-49
2022/10/11 05:28:48;;;;;;;11.77;1.97;;;8.60;99.90;;;;;;4994158;28;20629;-48
2022/10/11 05:31:16;;;;;;;11.10;2.30;;;8.60;99.90;;;;;;5001191;28;20738;-48
2022/10/11 05:33:45;;;;;;;9.10;2.40;;;8.60;99.90;;;;;;4992502;28;20707;-49
2022/10/11 05:36:13;;;;;;;10.73;2.23;;;8.70;99.90;;;;;;4994559;28;20241;-50
2022/10/11 05:38:41;;;;;;;13.40;3.17;;;8.70;99.90;;;;;;4995712;28;20234;-48
2022/10/11 05:41:10;;;;;;;8.43;2.23;;;8.70;99.90;;;;;;4990186;28;20643;-47
2022/10/11 05:43:39;;;;;;;7.03;2.40;;;8.80;99.90;;;;;;4997433;28;20222;-48
2022/10/11 05:46:08;;;;;;;11.67;2.30;;;8.80;99.90;;;;;;4996067;28;20591;-50
2022/10/11 05:48:36;;;;;;;7.90;2.27;;;8.90;99.90;;;;;;4995424;28;20268;-47
2022/10/11 05:51:08;;;;;;;8.87;2.23;;;8.90;99.90;;;;;;4994340;28;20292;-50
2022/10/11 05:53:37;;;;;;;8.13;2.10;;;8.90;99.90;;;;;;4995905;28;20223;-49
2022/10/11 05:56:16;;;;;;;7.77;1.93;;;9.00;99.90;;;;;;4993632;28;20234;-50
2022/10/11 05:58:45;;;;;;;6.30;2.00;;;9.00;99.90;;;;;;5002874;28;20261;-47
2022/10/11 06:01:19;;;;;;;10.00;2.23;;;9.00;99.90;;;;;;4995812;28;20237;-49
2022/10/11 06:03:47;;;;;;;10.87;2.30;;;9.00;99.90;;;;;;4995885;28;20640;-51
2022/10/11 06:06:16;;;;;;;7.43;1.90;;;9.00;99.90;;;;;;4993469;28;20689;-49
2022/10/11 06:08:45;;;;;;;6.80;1.73;;;9.00;99.90;;;;;;4991715;28;20238;-48
2022/10/11 06:11:15;;;;;;;10.63;1.90;;;9.10;99.90;;;;;;4987341;28;20241;-51
2022/10/11 06:13:45;;;;;;;8.60;2.30;;;9.00;99.90;;;;;;4999393;28;20228;-48
2022/10/11 06:16:13;;;;;;;5.20;1.97;;;9.00;99.90;;;;;;5007576;28;20350;-48
2022/10/11 06:18:41;;;;;;;14.30;2.70;;;9.00;99.90;;;;;;5001668;28;20712;-50
2022/10/11 06:21:09;;;;;;;8.50;2.40;;;8.90;99.90;;;;;;5004007;28;20721;-48
2022/10/11 06:23:37;;;;;;;8.53;1.93;;;8.90;99.90;;;;;;4999314;28;20230;-49
2022/10/11 06:26:07;;;;;;;8.43;2.00;;;8.90;99.90;;;;;;5000522;28;20276;-48
2022/10/11 06:28:37;;;;;;;12.20;2.50;;;8.80;99.90;;;;;;5006234;28;20225;-48
2022/10/11 06:31:07;;;;;;;11.03;2.10;;;8.80;99.90;;;;;;4992356;28;20721;-50
2022/10/11 06:33:36;;;;;;;12.10;2.30;;;8.80;99.90;;;;;;5011052;28;20230;-47
2022/10/11 06:36:06;;;;;;;10.47;2.70;;;8.80;99.90;;;;;;5011354;28;20233;-47
2022/10/11 06:38:35;;;;;;;9.50;2.17;;;8.80;99.90;;;;;;5011396;28;20228;-50
2022/10/11 06:41:11;;;;;;;8.67;2.30;;;8.90;99.90;;;;;;5008107;28;20636;-49
2022/10/11 06:43:39;;;;;;;6.57;2.30;;;8.90;99.90;;;;;;5007317;28;20232;-48
2022/10/11 06:46:09;;;;;;;11.70;2.50;;;9.00;99.90;;;;;;5011522;28;20229;-48
2022/10/11 06:48:40;;;;;;;14.60;2.87;;;9.00;99.90;;;;;;5013600;28;20227;-49
2022/10/11 06:51:08;;;;;;;7.93;2.20;;;9.00;99.90;;;;;;5015647;28;20663;-49
2022/10/11 06:53:36;;;;;;;15.90;3.00;;;9.20;99.90;;;;;;5012487;28;20221;-49
2022/10/11 06:56:06;;;;;;;7.57;2.17;;;9.20;99.90;;;;;;5015553;28;20222;-48
2022/10/11 06:58:36;;;;;;;11.67;2.40;;;9.30;99.90;;;;;;5014933;28;20225;-48
2022/10/11 07:01:07;;;;;;;8.20;2.33;;;9.30;99.90;;;;;;5015123;28;20261;-48
2022/10/11 07:03:37;;;;;;;5.93;1.97;;;9.40;99.90;;;;;;5021024;28;20228;-49
2022/10/11 07:06:07;;;;;;;9.10;2.60;;;9.50;99.90;;;;;;5020627;28;20225;-48
2022/10/11 07:08:37;;;;;;;11.20;2.13;;;9.60;99.90;;;;;;5018588;28;20596;-51
2022/10/11 07:11:07;;;;;;;7.23;2.47;;;9.60;99.90;;;;;;5015618;28;20248;-47
2022/10/11 07:13:35;;;;;;;9.40;2.60;;;9.70;99.90;;;;;;5025887;28;20612;-49
2022/10/11 07:16:05;;;;;;;11.03;2.63;;;9.80;99.90;;;;;;5017833;28;20229;-50
2022/10/11 07:18:33;;;;;;;12.27;2.60;;;9.90;99.90;;;;;;5020480;28;20286;-50
2022/10/11 07:21:04;;;;;;;6.47;2.40;;;10.00;99.90;;;;;;5019098;28;20248;-49
2022/10/11 07:23:33;;;;;;;6.90;2.30;;;10.10;99.90;;;;;;5025078;28;20225;-49
2022/10/11 07:26:01;;;;;;;9.13;3.03;;;10.30;99.90;;;;;;5023846;28;20646;-51
2022/10/11 07:28:30;;;;;;;12.77;2.43;;;10.40;99.90;;;;;;5021290;28;20226;-49
2022/10/11 07:30:59;;;;;;;10.63;2.83;;;10.50;99.90;;;;;;5016277;28;20261;-49
2022/10/11 07:33:27;;;;;;;12.17;2.90;;;10.60;99.90;;;;;;5018144;28;20624;-49
2022/10/11 07:35:57;;;;;;;7.90;2.27;;;10.80;99.90;;;;;;5026748;28;20278;-51
2022/10/11 07:38:27;;;;;;;12.07;2.80;;;10.90;99.90;;;;;;5019465;28;20706;-49
2022/10/11 07:40:55;;;;;;;8.20;2.50;;;11.10;99.90;;;;;;5022180;28;20229;-48
2022/10/11 07:43:23;;;;;;;12.90;2.80;;;11.40;99.90;;;;;;5018341;28;20585;-50
2022/10/11 07:45:54;;;;;;;10.30;2.67;;;11.70;99.90;;;;;;5018188;28;20226;-49
2022/10/11 07:48:22;;;;;;;11.13;2.50;;;11.90;99.90;;;;;;5021910;28;20229;-51
2022/10/11 07:50:50;;;;;;;7.27;2.23;;;11.90;99.90;;;;;;5027212;28;20233;-48
2022/10/11 07:53:18;;;;;;;14.90;2.67;;;12.00;99.90;;;;;;5014778;28;20253;-48
2022/10/11 07:55:48;;;;;;;9.77;2.47;;;11.90;99.90;;;;;;5018255;28;20232;-51
2022/10/11 07:58:16;;;;;;;7.47;2.10;;;11.80;99.90;;;;;;5014624;28;20695;-48
2022/10/11 08:00:44;;;;;;;11.47;2.33;;;11.70;99.90;;;;;;5014212;28;20242;-51
2022/10/11 08:03:12;;;;;;;9.13;1.90;;;11.60;99.90;;;;;;5013262;28;20727;-47
2022/10/11 08:05:40;;;;;;;8.37;2.20;;;11.60;99.90;;;;;;5018561;28;20229;-49
2022/10/11 08:08:09;;;;;;;7.53;1.90;;;11.60;99.90;;;;;;5019672;28;20234;-49
2022/10/11 08:10:38;;;;;;;7.77;2.83;;;11.80;99.90;;;;;;5017128;28;20293;-49
2022/10/11 08:13:07;;;;;;;6.63;1.97;;;12.00;99.90;;;;;;5020727;28;20232;-48
2022/10/11 08:15:35;;;;;;;10.67;2.53;;;12.10;99.90;;;;;;5017340;28;20626;-50
2022/10/11 08:18:04;;;;;;;8.40;1.87;;;12.30;99.90;;;;;;5016084;28;20239;-50
2022/10/11 08:20:32;;;;;;;13.60;2.63;;;12.50;99.90;;;;;;5022947;28;20238;-50
2022/10/11 08:23:00;;;;;;;9.30;2.30;;;12.70;99.90;;;;;;5022152;28;20238;-49
2022/10/11 08:25:28;;;;;;;6.00;1.83;;;12.90;99.90;;;;;;5014278;28;20302;-51
2022/10/11 08:27:56;;;;;;;12.40;2.23;;;13.10;99.90;;;;;;5016244;28;20650;-51
2022/10/11 08:30:25;;;;;;;9.47;2.13;;;13.30;99.90;;;;;;5015947;28;20224;-49
2022/10/11 08:32:53;;;;;;;10.83;2.37;;;13.60;99.90;;;;;;5019201;28;20701;-49
2022/10/11 08:35:21;;;;;;;7.07;2.07;;;13.70;99.90;;;;;;5015834;28;20221;-49
2022/10/11 08:37:49;;;;;;;8.00;1.80;;;13.90;99.90;;;;;;5018237;28;20240;-50
2022/10/11 08:40:20;;;;;;;10.27;1.90;;;14.10;99.90;;;;;;5016989;28;20232;-49
2022/10/11 08:42:56;;;;;;;6.90;1.63;;;14.30;99.90;;;;;;5016799;28;20243;-50
2022/10/11 08:45:31;;;;;;;11.53;2.23;;;14.50;99.90;;;;;;5013719;28;20687;-51
2022/10/11 08:48:07;;;;;;;8.27;1.73;;;14.60;99.90;;;;;;5010539;28;20254;-50
2022/10/11 08:50:36;;;;;;;13.97;2.70;;;14.80;99.90;;;;;;5015750;28;20693;-51
2022/10/11 08:53:13;;;;;;;9.17;2.70;;;15.00;99.90;;;;;;5021843;28;20728;-50
2022/10/11 08:55:47;;;;;;;9.47;2.37;;;15.20;99.90;;;;;;5015869;28;20306;-51
2022/10/11 08:58:19;;;;;;;11.70;2.10;;;15.30;99.90;;;;;;5006484;28;20731;-50
2022/10/11 09:00:52;;;;;;;6.17;1.70;;;15.50;99.90;;;;;;5021606;28;20247;-48
2022/10/11 09:03:30;;;;;;;8.00;2.20;;;15.60;99.90;;;;;;5016109;28;20232;-52
2022/10/11 09:06:06;;;;;;;10.10;2.43;;;15.70;99.90;;;;;;5015514;28;20235;-50
2022/10/11 09:08:49;;;;;;;8.13;1.90;;;15.90;99.90;;;;;;5013469;28;20321;-48
2022/10/11 09:11:25;;;;;;;9.57;2.40;;;15.90;99.90;;;;;;5017813;28;20240;-48
2022/10/11 09:14:15;;;;;;;9.33;2.10;;;16.00;99.90;;;;;;5016270;28;20239;-49
2022/10/11 09:16:55;;;;;;;9.87;2.13;;;16.00;99.90;;;;;;5015174;28;20699;-51
2022/10/11 09:19:55;;;;;;;11.27;2.10;;;16.10;99.90;;;;;;5011257;28;20228;-51
2022/10/11 09:22:33;;;;;;;10.20;2.30;;;16.10;99.90;;;;;;5019312;28;20270;-51
2022/10/11 09:25:18;;;;;;;9.20;1.80;;;16.20;99.90;;;;;;5017037;28;20282;-49
2022/10/11 09:27:54;;;;;;;10.73;2.93;;;16.40;99.90;;;;;;5020532;28;20235;-49
2022/10/11 09:30:32;;;;;;;8.37;2.07;;;16.60;99.90;;;;;;5016022;28;20237;-48
2022/10/11 09:33:13;;;;;;;10.17;2.40;;;16.70;99.90;;;;;;5019058;28;20229;-51
2022/10/11 09:35:45;;;;;;;11.50;2.83;;;16.70;99.90;;;;;;5020152;28;20225;-49
2022/10/11 09:38:24;;;;;;;10.33;2.63;;;16.70;99.90;;;;;;5005317;28;20712;-49
2022/10/11 09:41:02;;;;;;;10.87;2.43;;;16.80;99.90;;;;;;5012718;28;20235;-51
2022/10/11 09:43:31;;;;;;;7.50;2.10;;;16.70;99.90;;;;;;5023032;28;20294;-48
2022/10/11 09:45:59;;;;;;;11.73;2.73;;;16.50;99.90;;;;;;5015685;28;20256;-49
2022/10/11 09:48:37;;;;;;;9.43;2.10;;;16.30;99.90;;;;;;5015749;28;20634;-51
2022/10/11 09:51:11;;;;;;;8.80;2.40;;;16.20;99.90;;;;;;5013029;28;20217;-48
2022/10/11 09:53:54;;;;;;;8.67;2.07;;;16.10;99.90;;;;;;5015648;28;20731;-48
2022/10/11 09:56:23;;;;;;;10.60;2.17;;;16.10;99.90;;;;;;5012508;28;20244;-51
2022/10/11 09:59:07;;;;;;;11.20;2.10;;;16.20;99.90;;;;;;5014781;28;20221;-51
2022/10/11 10:01:36;;;;;;;10.70;2.40;;;16.30;99.90;;;;;;5015289;28;20635;-48
2022/10/11 10:04:09;;;;;;;10.47;2.43;;;16.30;99.90;;;;;;5015853;28;20767;-51
2022/10/11 10:06:37;;;;;;;8.27;2.00;;;16.20;99.90;;;;;;5018648;28;20224;-49
2022/10/11 10:09:26;;;;;;;11.90;2.40;;;16.20;99.90;;;;;;5020034;28;20225;-50
2022/10/11 10:11:55;;;;;;;9.93;2.07;;;16.30;99.90;;;;;;5016041;28;20245;-51
2022/10/11 10:14:25;;;;;;;12.53;2.60;;;16.40;99.90;;;;;;5008112;28;20624;-52
2022/10/11 10:17:04;;;;;;;10.83;2.23;;;16.60;99.90;;;;;;5015981;28;20229;-51
2022/10/11 10:19:40;;;;;;;9.67;2.37;;;16.70;99.90;;;;;;5015062;28;20283;-50
2022/10/11 10:22:18;;;;;;;11.33;2.13;;;16.70;99.90;;;;;;5010593;28;20228;-51
2022/10/11 10:24:48;;;;;;;9.13;2.23;;;16.50;99.90;;;;;;5016572;28;20251;-51
2022/10/11 10:27:20;;;;;;;10.27;2.43;;;16.40;99.90;;;;;;5016477;28;20221;-51
2022/10/11 10:30:13;;;;;;;12.20;2.30;;;16.50;99.90;;;;;;5016571;28;20224;-51
2022/10/11 10:32:49;;;;;;;11.43;2.50;;;17.00;99.90;;;;;;5014609;28;20233;-50
2022/10/11 10:35:30;;;;;;;6.63;2.07;;;17.30;99.90;;;;;;5009563;28;20276;-49
2022/10/11 10:38:10;;;;;;;11.50;2.40;;;17.50;99.90;;;;;;5015750;28;20233;-51
2022/10/11 10:40:42;;;;;;;11.90;2.37;;;17.40;99.90;;;;;;5013045;28;20278;-49
2022/10/11 10:43:15;;;;;;;9.80;2.33;;;17.40;99.90;;;;;;5014892;28;20234;-49
2022/10/11 10:45:57;;;;;;;10.70;1.80;;;17.30;99.90;;;;;;5013056;28;20233;-52
2022/10/11 10:48:34;;;;;;;11.87;2.47;;;17.40;99.90;;;;;;5012393;28;20227;-50
2022/10/11 10:51:39;;;;;;;7.93;2.40;;;17.10;99.90;;;;;;5012593;28;20315;-52
2022/10/11 10:54:21;;;;;;;9.07;2.20;;;16.90;99.90;;;;;;5011891;28;20225;-49
2022/10/11 10:56:56;;;;;;;13.20;2.20;;;16.80;99.90;;;;;;5010953;28;20635;-50
2022/10/11 10:59:52;;;;;;;11.47;2.83;;;16.40;99.90;;;;;;5012752;28;20235;-52
2022/10/11 11:02:25;;;;;;;10.57;2.47;;;16.30;99.90;;;;;;5017396;28;20244;-51
2022/10/11 11:05:19;;;;;;;9.87;2.03;;;16.20;99.90;;;;;;5018617;28;20275;-51
2022/10/11 11:07:54;;;;;;;9.13;2.00;;;16.20;99.90;;;;;;5015567;28;20233;-51
2022/10/11 11:10:25;;;;;;;10.53;2.70;;;16.40;99.90;;;;;;5016607;28;20985;-50
2022/10/11 11:13:00;;;;;;;10.50;1.97;;;16.40;99.90;;;;;;5016704;28;20264;-51
2022/10/11 11:15:32;;;;;;;12.00;2.87;;;16.50;99.90;;;;;;5016287;28;20713;-49
2022/10/11 11:18:20;;;;;;;10.07;2.00;;;16.40;99.90;;;;;;5011318;28;20729;-50
2022/10/11 11:21:05;;;;;;;9.67;2.13;;;16.40;99.90;;;;;;5010519;28;20235;-49
2022/10/11 11:23:42;;;;;;;9.50;2.50;;;16.20;99.90;;;;;;5009759;28;20730;-50
2022/10/11 11:26:18;;;;;;;12.83;2.97;;;16.10;99.90;;;;;;5012120;28;20287;-51
2022/10/11 11:29:06;;;;;;;8.97;2.27;;;16.10;99.90;;;;;;5011420;28;20740;-51
2022/10/11 11:31:57;;;;;;;8.90;2.20;;;16.20;99.90;;;;;;5011549;28;20279;-49
2022/10/11 11:34:29;;;;;;;8.27;2.20;;;16.10;99.90;;;;;;5009312;28;20793;-50
2022/10/11 11:37:00;;;;;;;11.33;3.00;;;16.00;99.90;;;;;;5009579;28;20312;-50
2022/10/11 11:39:34;;;;;;;8.53;2.30;;;16.00;99.90;;;;;;5009262;28;20224;-48
2022/10/11 11:42:08;;;;;;;12.70;2.40;;;16.00;99.90;;;;;;5009984;28;20224;-49
2022/10/11 11:44:39;;;;;;;11.83;2.83;;;16.10;99.90;;;;;;5011246;28;20766;-49
2022/10/11 11:47:16;;;;;;;16.20;3.17;;;16.00;99.90;;;;;;5012511;28;20227;-51
2022/10/11 11:49:49;;;;;;;9.27;1.97;;;15.90;99.90;;;;;;5012659;28;20670;-50
2022/10/11 11:52:26;;;;;;;8.27;2.07;;;16.10;99.90;;;;;;5009093;28;20271;-49
2022/10/11 11:55:04;;;;;;;9.13;2.13;;;16.10;99.90;;;;;;5012419;28;20821;-51
2022/10/11 11:57:47;;;;;;;13.17;2.13;;;16.20;99.90;;;;;;5010503;28;20588;-52
2022/10/11 12:00:19;;;;;;;8.57;2.03;;;16.10;99.90;;;;;;5015614;28;20334;-49
2022/10/11 12:02:53;;;;;;;8.37;2.30;;;16.10;99.90;;;;;;5017959;28;20225;-50
2022/10/11 12:05:24;;;;;;;5.97;1.60;;;16.20;99.90;;;;;;5017097;28;20268;-49
2022/10/11 12:07:57;;;;;;;9.67;1.73;;;16.20;99.90;;;;;;5017704;28;20264;-50
2022/10/11 12:10:30;;;;;;;9.33;1.77;;;16.20;99.90;;;;;;5010844;28;20236;-51
2022/10/11 12:13:08;;;;;;;10.43;1.70;;;16.20;99.90;;;;;;5014783;28;20221;-50
2022/10/11 12:15:36;;;;;;;13.00;2.27;;;16.20;99.90;;;;;;5016654;28;20220;-50
2022/10/11 12:18:14;;;;;;;7.67;1.73;;;16.20;99.90;;;;;;5016340;28;20259;-50
2022/10/11 12:20:44;;;;;;;9.67;2.00;;;16.20;99.90;;;;;;5016410;28;20229;-51
2022/10/11 12:23:39;;;;;;;7.37;2.07;;;16.20;99.90;;;;;;5016711;28;20248;-51
2022/10/11 12:29:42;;;;;;;7.50;1.70;;;16.20;99.90;;;;;;5073364;28;21070;-52
2022/10/11 12:32:47;;;;;;;8.93;1.70;;;16.40;99.90;;;;;;5058295;28;20235;-53
2022/10/11 12:35:50;;;;;;;4.93;1.53;;;16.30;99.90;;;;;;5055664;28;20312;-52
2022/10/11 12:38:22;;;;;;;7.43;2.00;;;16.40;99.90;;;;;;5052176;28;20235;-52
2022/10/11 12:40:53;;;;;;;9.37;1.67;;;16.40;99.90;;;;;;5052970;28;20235;-52
2022/10/11 12:43:34;;;;;;;9.60;1.93;;;16.20;99.90;;;;;;5056403;28;20231;-49
2022/10/11 12:46:38;;;;;;;5.07;1.60;;;16.30;99.90;;;;;;5052678;28;20283;-52
2022/10/11 12:49:38;;;;;;;10.87;1.63;;;16.40;99.90;;;;;;5020577;28;20251;-50
2022/10/11 12:52:23;;;;;;;8.27;2.00;;;16.40;99.90;;;;;;5018049;28;20286;-50
2022/10/11 12:55:06;;;;;;;12.43;2.00;;;16.50;99.90;;;;;;5023470;28;20236;-52
2022/10/11 12:58:06;;;;;;;9.00;1.80;;;16.60;99.90;;;;;;5032494;28;20590;-51
2022/10/11 13:00:42;;;;;;;5.40;1.47;;;16.60;99.90;;;;;;5032630;28;20244;-50
2022/10/11 13:03:28;;;;;;;9.70;1.90;;;16.60;99.90;;;;;;5037840;28;20762;-51
2022/10/11 13:06:09;;;;;;;7.17;1.83;;;16.50;99.90;;;;;;5032326;28;20224;-49
2022/10/11 13:08:43;;;;;;;7.43;1.77;;;16.50;99.90;;;;;;5034514;28;20606;-51
2022/10/11 13:11:18;;;;;;;8.77;1.80;;;16.40;99.90;;;;;;5035867;28;20216;-50
2022/10/11 13:13:52;;;;;;;7.67;1.70;;;16.30;99.90;;;;;;5036226;28;21209;-52
2022/10/11 13:16:24;;;;;;;6.57;1.60;;;16.30;99.90;;;;;;5029469;28;20238;-51
2022/10/11 13:18:56;;;;;;;5.93;1.60;;;16.20;99.90;;;;;;5036681;28;20251;-50
2022/10/11 13:21:29;;;;;;;7.53;1.80;;;16.10;99.90;;;;;;5042173;28;20580;-50